Time;durP1;ratioP1;P1;durP2;ratioP2;P2;SDS_P1;SDS_P2;PMS_P1;PMS_P2;Temp;Humidity;BMP_temperature;BMP_pressure;BME280_temperature;BME280_humidity;BME280_pressure;Samples;Min_cycle;Max_cycle;Signal;HPM_P1;HPM_P2
2021/09/22 00:02:20;;;;;;;12.02;9.65;;;11.50;99.90;;;;;;6049136;23;20029;-93
2021/09/22 00:04:47;;;;;;;13.10;9.85;;;11.50;99.90;;;;;;6051217;23;20010;-93
2021/09/22 00:07:13;;;;;;;12.55;9.45;;;11.50;99.90;;;;;;6049989;23;20002;-93
2021/09/22 00:09:43;;;;;;;10.70;8.73;;;11.50;99.90;;;;;;6053706;23;20003;-93
2021/09/22 00:12:12;;;;;;;10.15;7.85;;;11.40;99.90;;;;;;6079444;23;20012;-94
2021/09/22 00:14:43;;;;;;;10.05;7.65;;;11.40;99.90;;;;;;6056826;23;20013;-94
2021/09/22 00:17:10;;;;;;;11.85;8.07;;;11.40;99.90;;;;;;6050931;23;20018;-91
2021/09/22 00:19:37;;;;;;;12.57;9.40;;;11.40;99.90;;;;;;6049049;23;20025;-93
2021/09/22 00:22:06;;;;;;;13.57;9.93;;;11.40;99.90;;;;;;6050424;23;20018;-91
2021/09/22 00:24:33;;;;;;;12.48;9.32;;;11.30;99.90;;;;;;6048604;23;20006;-90
2021/09/22 00:27:00;;;;;;;11.85;9.63;;;11.30;99.90;;;;;;6071284;23;20037;-90
2021/09/22 00:29:29;;;;;;;12.05;8.55;;;11.30;99.90;;;;;;6049078;23;20002;-90
2021/09/22 00:32:07;;;;;;;12.73;9.75;;;11.20;99.90;;;;;;6054471;23;20010;-91
2021/09/22 00:34:34;;;;;;;13.32;10.15;;;11.20;99.90;;;;;;6048831;23;20025;-91
2021/09/22 00:37:04;;;;;;;13.40;10.20;;;11.20;99.90;;;;;;6071199;23;20014;-91
2021/09/22 00:39:36;;;;;;;13.20;10.30;;;11.20;99.90;;;;;;6050536;23;20022;-90
2021/09/22 00:42:04;;;;;;;11.60;9.50;;;11.20;99.90;;;;;;6048687;23;20014;-90
2021/09/22 00:44:31;;;;;;;13.77;11.00;;;11.20;99.90;;;;;;6048802;23;20648;-91
2021/09/22 00:47:45;;;;;;;16.27;10.35;;;11.10;99.90;;;;;;6049618;23;20010;-93
2021/09/22 00:50:29;;;;;;;15.43;12.13;;;11.10;99.90;;;;;;6083056;23;20002;-92
2021/09/22 00:53:29;;;;;;;18.60;13.82;;;11.10;99.90;;;;;;6055608;23;20009;-91
2021/09/22 00:56:13;;;;;;;18.17;13.77;;;11.10;99.90;;;;;;6031098;23;20015;-93
2021/09/22 00:58:43;;;;;;;19.85;15.18;;;11.10;99.90;;;;;;6023612;23;20381;-92
2021/09/22 01:01:12;;;;;;;17.88;14.70;;;11.10;99.90;;;;;;6025702;23;20023;-94
2021/09/22 01:03:48;;;;;;;18.48;14.45;;;11.10;99.90;;;;;;6012811;23;20354;-93
2021/09/22 01:06:20;;;;;;;19.05;15.05;;;11.10;99.90;;;;;;6016966;23;20015;-84
2021/09/22 01:08:49;;;;;;;17.20;13.73;;;11.10;99.90;;;;;;5984713;23;20011;-84
2021/09/22 01:11:16;;;;;;;19.58;14.45;;;11.00;99.90;;;;;;6034650;23;20324;-84
2021/09/22 01:13:42;;;;;;;18.67;14.27;;;11.00;99.90;;;;;;6008160;23;20050;-84
2021/09/22 01:16:09;;;;;;;21.17;15.93;;;11.00;99.90;;;;;;6007480;23;20752;-85
2021/09/22 01:18:37;;;;;;;20.38;15.45;;;11.00;99.90;;;;;;6006407;23;20342;-85
2021/09/22 01:21:11;;;;;;;22.42;16.10;;;10.90;99.90;;;;;;5988084;23;20354;-85
2021/09/22 01:23:42;;;;;;;16.17;13.15;;;10.90;99.90;;;;;;5986598;23;20373;-85
2021/09/22 01:26:10;;;;;;;16.23;12.85;;;10.90;99.90;;;;;;6008274;23;20341;-85
2021/09/22 01:28:54;;;;;;;20.70;14.90;;;10.80;99.90;;;;;;6046539;23;20014;-94
2021/09/22 01:31:54;;;;;;;18.40;14.27;;;10.80;99.90;;;;;;6016667;23;20003;-93
2021/09/22 01:34:36;;;;;;;19.35;14.52;;;10.80;99.90;;;;;;6020011;23;20014;-85
2021/09/22 01:37:07;;;;;;;21.40;16.48;;;10.80;99.90;;;;;;6066225;23;20017;-86
2021/09/22 01:39:52;;;;;;;19.88;15.32;;;10.80;99.90;;;;;;6070635;23;20021;-85
2021/09/22 01:42:19;;;;;;;22.73;16.40;;;10.80;99.90;;;;;;6044127;23;20119;-85
2021/09/22 01:44:48;;;;;;;22.88;17.48;;;10.70;99.90;;;;;;6044061;23;20021;-85
2021/09/22 01:47:34;;;;;;;25.90;18.58;;;10.70;99.90;;;;;;6066194;23;20017;-85
2021/09/22 01:50:16;;;;;;;24.95;18.02;;;10.70;99.90;;;;;;6070074;23;20010;-85
2021/09/22 01:52:49;;;;;;;26.35;18.92;;;10.70;99.90;;;;;;6071319;23;20017;-84
2021/09/22 01:55:23;;;;;;;21.73;17.23;;;10.70;99.90;;;;;;6055258;23;20014;-83
2021/09/22 01:57:57;;;;;;;23.42;17.55;;;10.70;99.90;;;;;;6042830;23;20015;-85
2021/09/22 02:00:42;;;;;;;23.85;18.20;;;10.70;99.90;;;;;;6091543;23;20458;-85
2021/09/22 02:03:16;;;;;;;23.77;17.92;;;10.60;99.90;;;;;;6045142;23;20470;-85
2021/09/22 02:05:59;;;;;;;19.70;15.88;;;10.60;99.90;;;;;;6047989;23;20022;-85
2021/09/22 02:08:32;;;;;;;22.15;16.42;;;10.60;99.90;;;;;;6090249;23;20014;-85
2021/09/22 02:11:15;;;;;;;22.42;16.63;;;10.60;99.90;;;;;;6070541;23;20034;-92
2021/09/22 02:13:51;;;;;;;24.60;18.50;;;10.60;99.90;;;;;;6054827;23;20010;-93
2021/09/22 02:16:38;;;;;;;23.30;17.80;;;10.60;99.90;;;;;;6012152;23;20015;-93
2021/09/22 02:19:26;;;;;;;25.20;19.83;;;10.60;99.90;;;;;;6056522;23;20336;-86
2021/09/22 02:22:06;;;;;;;28.92;21.90;;;10.60;99.90;;;;;;6008452;23;20021;-85
2021/09/22 02:25:03;;;;;;;26.38;18.92;;;10.60;99.90;;;;;;5993512;23;20459;-85
2021/09/22 02:27:31;;;;;;;29.25;22.13;;;10.50;99.90;;;;;;5978212;23;20452;-86
2021/09/22 02:30:05;;;;;;;31.67;21.95;;;10.50;99.90;;;;;;6006818;23;20010;-85
2021/09/22 02:32:37;;;;;;;29.75;21.33;;;10.60;99.90;;;;;;6008543;23;20019;-85
2021/09/22 02:35:08;;;;;;;33.22;24.55;;;10.50;99.90;;;;;;5984620;23;20042;-85
2021/09/22 02:37:53;;;;;;;29.20;21.55;;;10.60;99.90;;;;;;6005268;23;20014;-85
2021/09/22 02:40:37;;;;;;;29.80;20.98;;;10.60;99.90;;;;;;6031139;23;20014;-85
2021/09/22 02:43:04;;;;;;;29.85;22.75;;;10.60;99.90;;;;;;6007431;23;20026;-84
2021/09/22 02:45:35;;;;;;;29.23;21.90;;;10.60;99.90;;;;;;6056483;23;20033;-84
2021/09/22 02:48:02;;;;;;;32.92;23.88;;;10.60;99.90;;;;;;6008047;23;20021;-84
2021/09/22 02:50:32;;;;;;;30.63;20.98;;;10.60;99.90;;;;;;6014707;23;20010;-85
2021/09/22 02:53:01;;;;;;;29.00;21.17;;;10.60;99.90;;;;;;6067639;23;20009;-85
2021/09/22 02:55:27;;;;;;;34.10;25.10;;;10.60;99.90;;;;;;6042927;23;20017;-84
2021/09/22 02:57:54;;;;;;;34.72;24.90;;;10.60;99.90;;;;;;6064086;23;20025;-84
2021/09/22 03:00:24;;;;;;;33.47;24.77;;;10.60;99.90;;;;;;6042572;23;20009;-85
2021/09/22 03:02:55;;;;;;;31.02;23.30;;;10.60;99.90;;;;;;6044494;23;20083;-85
2021/09/22 03:05:22;;;;;;;32.85;23.70;;;10.60;99.90;;;;;;6042420;23;20018;-85
2021/09/22 03:07:49;;;;;;;32.63;23.73;;;10.70;99.90;;;;;;6068617;23;20481;-85
2021/09/22 03:10:16;;;;;;;32.22;22.15;;;10.70;99.90;;;;;;6043562;23;20047;-85
2021/09/22 03:12:43;;;;;;;29.48;22.17;;;10.60;99.90;;;;;;6068545;23;20012;-85
2021/09/22 03:15:13;;;;;;;30.05;21.13;;;10.70;99.90;;;;;;6066319;23;20014;-85
2021/09/22 03:17:49;;;;;;;29.13;22.02;;;10.70;99.90;;;;;;6090672;23;20503;-85
2021/09/22 03:20:24;;;;;;;34.97;24.90;;;10.70;99.90;;;;;;6042181;23;20021;-85
2021/09/22 03:22:51;;;;;;;;;;;10.70;99.90;;;;;;6043439;23;20010;-85
2021/09/22 03:25:20;;;;;;;31.20;23.13;;;10.60;99.90;;;;;;6068547;23;19913;-86
2021/09/22 03:27:55;;;;;;;31.83;22.95;;;10.60;99.90;;;;;;6066617;23;20005;-85
2021/09/22 03:30:34;;;;;;;33.65;25.05;;;10.60;99.90;;;;;;6068114;23;20524;-85
2021/09/22 03:33:12;;;;;;;37.70;27.25;;;10.60;99.90;;;;;;6066235;23;20348;-85
2021/09/22 03:35:39;;;;;;;36.78;25.58;;;10.60;99.90;;;;;;6042917;23;20013;-85
2021/09/22 03:38:09;;;;;;;35.30;24.88;;;10.60;99.90;;;;;;6066314;23;20025;-84
2021/09/22 03:40:39;;;;;;;;;;;10.60;99.90;;;;;;6043346;23;20021;-85
2021/09/22 03:43:24;;;;;;;34.45;24.85;;;10.60;99.90;;;;;;6042836;23;19909;-85
2021/09/22 03:46:05;;;;;;;34.35;24.33;;;10.60;99.90;;;;;;6042353;23;20018;-86
2021/09/22 03:48:43;;;;;;;35.05;24.15;;;10.60;99.90;;;;;;6091603;23;20013;-86
2021/09/22 03:51:28;;;;;;;32.45;24.17;;;10.50;99.90;;;;;;6036780;23;20017;-87
2021/09/22 03:53:58;;;;;;;33.50;24.20;;;10.50;99.90;;;;;;6069649;23;20010;-85
2021/09/22 03:56:27;;;;;;;33.63;24.42;;;10.50;99.90;;;;;;6019285;23;20037;-85
2021/09/22 03:59:08;;;;;;;35.65;26.55;;;10.50;99.90;;;;;;6094095;23;20009;-85
2021/09/22 04:01:41;;;;;;;37.17;25.48;;;10.40;99.90;;;;;;6067978;23;20448;-86
2021/09/22 04:04:14;;;;;;;37.45;25.80;;;10.40;99.90;;;;;;6044957;23;20018;-86
2021/09/22 04:07:06;;;;;;;34.15;24.52;;;10.40;99.90;;;;;;6066002;23;20448;-85
2021/09/22 04:09:49;;;;;;;34.65;23.40;;;10.50;99.90;;;;;;6071345;23;20450;-86
2021/09/22 04:12:32;;;;;;;;;;;;;;;;;;;;;
2021/09/22 04:15:44;;;;;;;34.35;25.15;;;10.40;99.90;;;;;;6091971;23;20021;-86
2021/09/22 04:18:35;;;;;;;33.47;23.52;;;10.40;99.90;;;;;;6089895;23;20486;-86
2021/09/22 04:24:30;;;;;;;38.15;26.73;;;10.40;99.90;;;;;;6087317;23;20006;-93
2021/09/22 04:27:35;;;;;;;45.67;29.60;;;10.40;99.90;;;;;;6066155;23;20014;-93
2021/09/22 04:30:44;;;;;;;47.25;31.75;;;10.40;99.90;;;;;;6038813;23;20016;-94
2021/09/22 04:33:45;;;;;;;;;;;;;;;;;;;;;
2021/09/22 04:36:34;;;;;;;39.15;27.25;;;10.40;99.90;;;;;;6096714;23;20006;-93
2021/09/22 04:44:27;;;;;;;37.38;26.90;;;10.30;99.90;;;;;;6141104;23;20020;-95
2021/09/22 04:47:47;;;;;;;35.85;25.02;;;10.30;99.90;;;;;;6070636;23;20021;-94
2021/09/22 04:51:19;;;;;;;;;;;;;;;;;;;;;
2021/09/22 04:54:13;;;;;;;39.30;27.05;;;10.30;99.90;;;;;;6111880;23;20014;-95
2021/09/22 04:57:49;;;;;;;;;;;;;;;;;;;;;
2021/09/22 05:05:03;;;;;;;35.55;25.02;;;10.20;99.90;;;;;;6018363;23;20011;-94
2021/09/22 05:07:54;;;;;;;36.30;25.23;;;10.20;99.90;;;;;;6078684;23;20020;-85
2021/09/22 05:11:16;;;;;;;39.80;26.77;;;10.20;99.90;;;;;;6053897;23;20323;-85
2021/09/22 05:14:38;;;;;;;42.47;28.27;;;10.10;99.90;;;;;;6080894;23;20335;-94
2021/09/22 05:17:27;;;;;;;40.88;27.90;;;10.10;99.90;;;;;;6085106;23;20010;-93
2021/09/22 05:20:27;;;;;;;43.60;29.55;;;10.10;99.90;;;;;;6074592;23;20347;-95
2021/09/22 05:23:16;;;;;;;40.25;27.35;;;10.10;99.90;;;;;;6091572;23;20010;-86
2021/09/22 05:26:07;;;;;;;39.38;27.30;;;10.10;99.90;;;;;;6075784;23;20013;-86
2021/09/22 05:29:06;;;;;;;40.25;29.38;;;10.10;99.90;;;;;;6098487;23;20006;-86
2021/09/22 05:32:19;;;;;;;41.65;28.23;;;10.10;99.90;;;;;;6084930;23;20032;-94
2021/09/22 05:35:10;;;;;;;42.42;29.50;;;10.10;99.90;;;;;;6077319;23;20010;-84
2021/09/22 05:38:20;;;;;;;41.35;28.40;;;10.10;99.90;;;;;;6077059;23;20017;-86
2021/09/22 05:41:43;;;;;;;45.35;29.27;;;10.10;99.90;;;;;;6097239;23;20010;-90
2021/09/22 05:44:29;;;;;;;44.95;30.88;;;10.10;99.90;;;;;;6099597;23;20016;-91
2021/09/22 05:47:23;;;;;;;41.00;28.05;;;10.10;99.90;;;;;;6071613;23;20389;-94
2021/09/22 05:50:16;;;;;;;43.28;30.27;;;10.20;99.90;;;;;;6070930;23;20010;-93
2021/09/22 05:53:25;;;;;;;42.55;29.92;;;10.20;99.90;;;;;;6085944;23;20025;-92
2021/09/22 05:56:11;;;;;;;43.22;28.35;;;10.20;99.90;;;;;;6072364;23;20014;-84
2021/09/22 05:58:59;;;;;;;40.38;27.55;;;10.20;99.90;;;;;;6081707;23;20020;-86
2021/09/22 06:01:44;;;;;;;34.20;24.00;;;10.30;99.90;;;;;;6079611;23;20014;-93
2021/09/22 06:04:33;;;;;;;39.97;26.30;;;10.30;99.90;;;;;;6061869;23;20447;-92
2021/09/22 06:07:25;;;;;;;36.00;24.42;;;10.40;99.90;;;;;;6081792;23;20001;-85
2021/09/22 06:11:33;;;;;;;36.90;24.40;;;10.40;99.90;;;;;;6076975;23;20006;-90
2021/09/22 06:14:15;;;;;;;33.28;23.20;;;10.40;99.90;;;;;;6071822;23;20013;-88
2021/09/22 06:16:47;;;;;;;33.50;23.77;;;10.50;99.90;;;;;;6067491;23;20010;-87
2021/09/22 06:23:32;;;;;;;35.13;24.27;;;10.60;99.90;;;;;;6032802;23;20011;-90
2021/09/22 06:26:52;;;;;;;35.03;23.92;;;10.60;99.90;;;;;;6040551;23;20345;-89
2021/09/22 06:29:19;;;;;;;30.80;22.05;;;10.70;99.90;;;;;;5984185;23;20010;-88
2021/09/22 06:31:55;;;;;;;37.13;24.85;;;10.80;99.90;;;;;;6008554;23;20034;-84
2021/09/22 06:35:18;;;;;;;33.67;22.33;;;10.80;99.90;;;;;;6000004;23;20015;-89
2021/09/22 06:38:11;;;;;;;32.30;23.50;;;11.00;99.90;;;;;;6031523;23;20015;-83
2021/09/22 06:40:56;;;;;;;36.63;25.33;;;11.00;99.90;;;;;;6008927;23;20011;-85
2021/09/22 06:43:47;;;;;;;31.83;23.02;;;11.10;99.90;;;;;;6039438;23;20018;-87
2021/09/22 06:46:14;;;;;;;34.53;24.45;;;11.20;99.90;;;;;;5959947;23;20018;-86
2021/09/22 06:48:40;;;;;;;33.95;23.73;;;11.30;99.90;;;;;;5982477;23;20007;-83
2021/09/22 06:56:28;;;;;;;;;;;;;;;;;;;;;
2021/09/22 07:08:17;;;;;;;32.50;22.00;;;11.90;99.90;;;;;;5845706;24;20029;-88
2021/09/22 07:30:10;;;;;;;30.70;21.40;;;12.80;99.90;;;;;;5750377;24;20016;-84
2021/09/22 07:32:40;;;;;;;30.00;20.92;;;13.00;99.90;;;;;;5840567;24;20088;-85
2021/09/22 07:35:07;;;;;;;33.08;22.45;;;13.10;99.90;;;;;;5931636;23;20015;-84
2021/09/22 07:37:35;;;;;;;29.65;23.95;;;13.20;99.90;;;;;;5979238;23;20365;-83
2021/09/22 07:40:03;;;;;;;31.95;23.17;;;13.40;99.90;;;;;;6006226;23;20022;-84
2021/09/22 07:42:33;;;;;;;30.45;22.85;;;13.60;99.90;;;;;;6006687;23;20011;-83
2021/09/22 07:45:03;;;;;;;35.05;26.08;;;13.70;99.90;;;;;;6007119;23;20015;-84
2021/09/22 07:47:35;;;;;;;33.92;25.83;;;13.80;99.90;;;;;;5981791;23;20820;-84
2021/09/22 07:50:18;;;;;;;33.97;24.98;;;13.90;99.90;;;;;;5960892;23;20387;-84
2021/09/22 07:52:49;;;;;;;29.83;23.52;;;14.00;99.90;;;;;;5969573;23;20015;-85
2021/09/22 07:55:17;;;;;;;30.27;23.65;;;14.20;99.90;;;;;;6041451;23;20022;-83
2021/09/22 07:57:44;;;;;;;31.17;24.58;;;14.30;99.90;;;;;;6042625;23;20341;-83
2021/09/22 08:00:11;;;;;;;28.65;21.75;;;14.50;99.90;;;;;;6041089;23;20072;-84
2021/09/22 08:02:50;;;;;;;31.85;24.00;;;14.60;99.90;;;;;;6049027;23;20036;-83
2021/09/22 08:05:17;;;;;;;28.00;22.33;;;14.70;99.90;;;;;;6070219;23;20040;-85
2021/09/22 08:07:45;;;;;;;31.10;23.77;;;14.80;99.90;;;;;;6068897;23;20010;-83
2021/09/22 08:10:15;;;;;;;33.30;24.95;;;14.80;99.90;;;;;;6045294;23;20017;-86
2021/09/22 08:12:44;;;;;;;29.55;23.60;;;14.90;99.90;;;;;;6092009;23;20021;-84
2021/09/22 08:15:11;;;;;;;29.10;23.48;;;14.90;99.90;;;;;;6071172;23;20020;-82
2021/09/22 08:17:38;;;;;;;27.80;21.08;;;15.00;99.90;;;;;;6069296;23;20017;-82
2021/09/22 08:20:05;;;;;;;26.60;22.00;;;15.20;99.90;;;;;;6070354;23;20030;-83
2021/09/22 08:22:32;;;;;;;27.67;21.52;;;15.30;99.90;;;;;;6044584;23;20466;-84
2021/09/22 08:24:59;;;;;;;24.38;19.50;;;15.50;99.90;;;;;;6095717;23;20021;-83
2021/09/22 08:27:26;;;;;;;20.85;18.30;;;15.60;99.90;;;;;;6045681;23;20009;-84
2021/09/22 08:29:52;;;;;;;24.35;20.20;;;15.80;99.90;;;;;;6070037;23;20002;-87
2021/09/22 08:32:19;;;;;;;25.80;20.98;;;15.90;99.90;;;;;;6044806;23;20010;-86
2021/09/22 08:34:46;;;;;;;22.05;18.80;;;16.10;99.90;;;;;;6090872;23;20105;-87
2021/09/22 08:37:13;;;;;;;23.02;19.48;;;16.30;99.90;;;;;;6041905;23;20036;-84
2021/09/22 08:39:39;;;;;;;25.35;19.20;;;16.50;99.90;;;;;;6067961;23;20332;-84
2021/09/22 08:42:06;;;;;;;22.98;18.35;;;16.70;99.90;;;;;;6044344;23;20014;-85
2021/09/22 08:44:33;;;;;;;20.45;16.98;;;16.80;99.90;;;;;;6043903;23;20009;-86
2021/09/22 08:47:11;;;;;;;23.20;19.90;;;17.00;99.90;;;;;;6047206;23;20017;-85
2021/09/22 08:49:41;;;;;;;19.83;17.48;;;17.10;99.90;;;;;;6069257;23;20467;-85
2021/09/22 08:53:11;;;;;;;19.33;15.45;;;17.20;99.90;;;;;;6093361;23;20013;-88
2021/09/22 09:14:16;;;;;;;18.30;16.30;;;17.40;99.90;;;;;;5889298;24;20024;-87
2021/09/22 09:17:11;;;;;;;17.48;15.25;;;17.60;99.90;;;;;;5953108;23;20011;-84
2021/09/22 09:20:06;;;;;;;23.23;19.45;;;17.80;99.90;;;;;;6008656;23;20014;-87
2021/09/22 09:22:39;;;;;;;18.25;15.50;;;17.90;99.90;;;;;;5987916;23;20385;-86
2021/09/22 09:25:35;;;;;;;19.70;16.48;;;17.90;99.80;;;;;;6013103;23;20015;-86
2021/09/22 09:28:29;;;;;;;18.85;14.40;;;18.00;99.70;;;;;;5984987;23;20011;-88
2021/09/22 09:31:03;;;;;;;17.70;14.63;;;18.10;99.40;;;;;;6035665;23;20078;-83
2021/09/22 09:33:37;;;;;;;21.23;16.33;;;18.10;98.90;;;;;;6031998;23;20018;-85
2021/09/22 09:36:31;;;;;;;20.42;15.82;;;18.20;98.40;;;;;;6053667;23;20022;-85
2021/09/22 09:39:25;;;;;;;19.05;12.70;;;18.20;97.90;;;;;;6065053;23;20014;-84
2021/09/22 09:41:59;;;;;;;17.13;14.20;;;18.40;98.00;;;;;;6015067;23;20018;-84
2021/09/22 09:44:30;;;;;;;15.98;13.57;;;18.60;97.30;;;;;;6041274;23;20038;-83
2021/09/22 09:47:10;;;;;;;16.42;12.05;;;18.70;96.80;;;;;;6086850;23;20039;-85
2021/09/22 09:55:26;;;;;;;;;;;;;;;;;;;;;
2021/09/22 09:58:47;;;;;;;14.30;11.80;;;19.40;95.60;;;;;;5923827;24;20012;-94
2021/09/22 10:06:24;;;;;;;14.63;11.52;;;19.70;94.70;;;;;;5963525;24;20017;-94
2021/09/22 10:13:33;;;;;;;14.50;10.90;;;20.10;94.40;;;;;;5904162;24;20116;-93
2021/09/22 10:16:36;;;;;;;12.98;10.15;;;20.30;93.90;;;;;;5814173;24;20023;-93
2021/09/22 10:19:40;;;;;;;;;;;;;;;;;;;;;
2021/09/22 10:23:02;;;;;;;13.77;10.35;;;20.80;93.70;;;;;;5851319;24;20033;-93
2021/09/22 10:36:35;;;;;;;13.15;10.23;;;21.10;93.20;;;;;;4982760;27;1524446;-85
2021/09/22 10:39:48;;;;;;;11.32;8.30;;;22.70;90.60;;;;;;5026595;27;2740489;-85
2021/09/22 10:42:52;;;;;;;8.38;7.32;;;22.90;90.10;;;;;;5060758;28;20396;-85
2021/09/22 10:46:06;;;;;;;11.05;9.13;;;23.30;89.70;;;;;;5090436;27;20880;-93
2021/09/22 10:59:58;;;;;;;12.10;9.35;;;23.70;87.40;;;;;;5083824;28;20495;-90
2021/09/22 11:02:49;;;;;;;12.25;8.25;;;25.10;80.20;;;;;;5084772;27;20425;-94
2021/09/22 11:06:46;;;;;;;11.10;9.95;;;25.10;78.90;;;;;;5126673;27;20376;-87
2021/09/22 11:09:36;;;;;;;11.05;9.02;;;25.60;77.30;;;;;;5124457;27;20654;-87
2021/09/22 11:12:32;;;;;;;10.00;8.48;;;25.80;76.50;;;;;;5150459;27;20309;-87
2021/09/22 11:15:25;;;;;;;10.20;7.75;;;26.10;75.80;;;;;;5124016;27;20895;-87
2021/09/22 11:18:17;;;;;;;9.73;6.63;;;26.50;75.10;;;;;;5125054;27;20177;-88
2021/09/22 11:21:21;;;;;;;12.05;10.45;;;26.70;73.90;;;;;;5111723;27;20307;-86
2021/09/22 11:24:18;;;;;;;7.78;6.38;;;27.00;70.90;;;;;;5081834;28;20390;-87
2021/09/22 11:37:33;;;;;;;8.80;6.95;;;27.00;70.90;;;;;;6138659;22;2389141;-87
2021/09/22 11:40:34;;;;;;;7.20;6.32;;;27.90;65.70;;;;;;5088783;27;20416;-87
2021/09/22 11:53:44;;;;;;;6.63;5.22;;;28.10;65.20;;;;;;5986542;22;7220326;-88
2021/09/22 11:57:11;;;;;;;6.80;6.10;;;29.70;62.40;;;;;;5090506;28;20389;-87
2021/09/22 12:11:35;;;;;;;8.85;6.25;;;29.90;59.10;;;;;;6200936;22;1362582;-92
2021/09/22 12:27:25;;;;;;;8.63;4.18;;;31.60;52.70;;;;;;6131618;22;1521788;-82
2021/09/22 12:40:43;;;;;;;7.70;4.90;;;31.70;52.80;;;;;;5843270;22;7746133;-83
2021/09/22 12:43:39;;;;;;;6.30;3.55;;;32.30;50.20;;;;;;5007297;27;1751362;-85
2021/09/22 12:46:38;;;;;;;6.57;4.30;;;32.30;50.20;;;;;;5070863;28;20415;-84
2021/09/22 12:49:36;;;;;;;4.53;3.30;;;32.50;48.80;;;;;;5107907;27;20399;-84
2021/09/22 12:52:30;;;;;;;4.90;3.97;;;32.70;48.70;;;;;;5077191;27;1316316;-85
2021/09/22 12:55:30;;;;;;;5.32;4.22;;;32.70;47.60;;;;;;5130952;27;20324;-85
2021/09/22 12:58:31;;;;;;;10.20;9.30;;;32.80;47.50;;;;;;4708489;27;10103825;-86
2021/09/22 13:01:54;;;;;;;7.93;6.63;;;33.00;47.80;;;;;;5092916;28;20443;-89
2021/09/22 13:15:05;;;;;;;4.93;4.20;;;33.30;47.00;;;;;;5081898;28;20425;-84
2021/09/22 13:17:54;;;;;;;4.82;3.92;;;31.70;47.60;;;;;;5088495;28;20951;-84
2021/09/22 13:20:43;;;;;;;7.65;4.65;;;30.30;49.10;;;;;;5066811;28;20956;-83
2021/09/22 13:34:06;;;;;;;5.63;3.78;;;29.40;50.50;;;;;;5900596;22;7617339;-87
2021/09/22 14:09:48;;;;;;;6.22;4.95;;;23.80;60.60;;;;;;5140776;22;23415147;-86
2021/09/22 14:13:40;;;;;;;6.13;4.38;;;23.60;61.20;;;;;;6098288;23;20568;-87
2021/09/22 14:16:49;;;;;;;7.55;4.60;;;23.30;62.30;;;;;;6151738;23;20024;-89
2021/09/22 14:20:27;;;;;;;7.05;4.90;;;23.10;62.90;;;;;;5022179;27;1450781;-90
2021/09/22 14:23:18;;;;;;;5.30;3.45;;;22.80;63.00;;;;;;5132122;27;20816;-90
2021/09/22 14:36:26;;;;;;;5.25;3.90;;;22.60;63.70;;;;;;5951575;22;4277740;-87
2021/09/22 14:39:09;;;;;;;4.90;3.50;;;22.10;65.90;;;;;;5143216;27;20372;-87
2021/09/22 14:41:53;;;;;;;7.82;3.65;;;22.00;65.70;;;;;;5086965;27;20394;-87
2021/09/22 14:44:46;;;;;;;7.47;5.03;;;21.90;66.10;;;;;;5109261;27;20344;-87
2021/09/22 14:47:38;;;;;;;8.98;6.03;;;21.90;66.60;;;;;;5105553;27;20365;-86
2021/09/22 14:50:22;;;;;;;8.32;4.97;;;21.80;66.80;;;;;;5153244;27;20881;-87
2021/09/22 14:53:02;;;;;;;6.88;3.92;;;21.70;66.90;;;;;;5089502;27;20381;-88
2021/09/22 15:06:10;;;;;;;4.45;3.17;;;21.60;67.20;;;;;;5151067;27;20319;-88
2021/09/22 15:08:55;;;;;;;7.90;4.97;;;21.40;68.30;;;;;;5094304;27;20374;-87
2021/09/22 15:11:43;;;;;;;13.15;6.18;;;21.30;68.60;;;;;;5135206;27;20683;-85
2021/09/22 15:14:45;;;;;;;8.90;5.15;;;21.20;68.70;;;;;;5112766;27;20391;-85
2021/09/22 15:17:27;;;;;;;7.10;4.57;;;21.10;68.80;;;;;;5051847;27;1502269;-84
2021/09/22 15:20:24;;;;;;;6.90;5.03;;;21.10;69.10;;;;;;5099537;27;1288911;-82
2021/09/22 15:23:06;;;;;;;7.80;4.72;;;21.00;69.70;;;;;;5073698;27;20594;-84
2021/09/22 15:25:50;;;;;;;8.00;4.63;;;20.90;70.00;;;;;;5164088;27;20783;-84
2021/09/22 15:28:30;;;;;;;5.68;4.28;;;20.90;70.20;;;;;;5063261;28;20460;-84
2021/09/22 15:31:09;;;;;;;9.25;5.43;;;20.70;70.00;;;;;;5068654;28;20447;-82
2021/09/22 15:33:47;;;;;;;7.38;4.60;;;20.70;70.10;;;;;;5067428;28;20826;-83
2021/09/22 15:36:25;;;;;;;6.00;3.33;;;20.70;70.20;;;;;;5077463;27;20522;-83
2021/09/22 15:39:08;;;;;;;8.68;5.00;;;20.60;70.40;;;;;;5084595;28;20388;-84
2021/09/22 15:41:53;;;;;;;5.40;3.25;;;20.50;70.90;;;;;;5114307;27;20113;-84
2021/09/22 15:44:33;;;;;;;8.60;4.25;;;20.50;71.10;;;;;;5163324;27;20444;-84
2021/09/22 15:47:22;;;;;;;19.08;15.93;;;20.50;71.10;;;;;;5087874;27;20303;-84
2021/09/22 15:50:08;;;;;;;10.88;7.05;;;20.40;71.20;;;;;;5094131;27;20712;-85
2021/09/22 15:52:51;;;;;;;9.80;5.85;;;20.30;71.40;;;;;;5135782;27;19964;-86
2021/09/22 16:05:59;;;;;;;11.93;6.97;;;20.30;71.70;;;;;;6193948;22;1337868;-85
2021/09/22 16:08:38;;;;;;;4.90;3.03;;;20.00;72.60;;;;;;5094382;27;20360;-85
2021/09/22 16:11:23;;;;;;;6.82;4.93;;;19.90;72.60;;;;;;5111308;27;20366;-85
2021/09/22 16:14:04;;;;;;;6.60;3.83;;;19.90;72.60;;;;;;5082299;27;20377;-85
2021/09/22 16:17:19;;;;;;;6.05;4.40;;;19.80;72.90;;;;;;5053246;27;1366551;-94
2021/09/22 16:30:44;;;;;;;7.78;4.93;;;19.70;73.30;;;;;;5103705;27;20412;-84
2021/09/22 16:33:33;;;;;;;9.20;6.38;;;19.40;74.00;;;;;;5153213;27;21102;-84
2021/09/22 16:36:13;;;;;;;7.25;4.30;;;19.40;74.20;;;;;;5083046;27;20391;-85
2021/09/22 16:49:26;;;;;;;7.22;4.78;;;19.30;74.40;;;;;;6091869;22;4237506;-91
2021/09/22 17:02:32;;;;;;;6.75;4.50;;;18.90;75.50;;;;;;6008487;22;4167250;-89
2021/09/22 17:05:24;;;;;;;7.90;5.05;;;18.50;77.50;;;;;;5110045;27;20571;-88
2021/09/22 17:08:25;;;;;;;4.88;3.75;;;18.30;78.20;;;;;;5044035;27;2034797;-87
2021/09/22 17:22:06;;;;;;;;;;;;;;;;;;;;;
2021/09/22 17:38:08;;;;;;;11.00;4.95;;;17.20;82.30;;;;;;6179964;22;1390649;-86
2021/09/22 17:51:24;;;;;;;5.55;3.08;;;17.10;83.30;;;;;;6079394;22;4151906;-86
2021/09/22 18:07:08;;;;;;;9.05;4.63;;;16.40;84.90;;;;;;5578174;22;15308522;-89
2021/09/22 18:09:38;;;;;;;8.73;5.70;;;16.30;85.70;;;;;;6167204;23;20468;-88
2021/09/22 18:12:11;;;;;;;11.15;7.60;;;16.20;86.30;;;;;;6193681;23;20346;-87
2021/09/22 18:14:40;;;;;;;11.40;7.82;;;16.10;87.00;;;;;;6193116;23;20011;-89
2021/09/22 18:17:10;;;;;;;15.60;11.30;;;16.10;87.50;;;;;;6191928;23;20026;-87
2021/09/22 18:19:38;;;;;;;11.65;9.10;;;16.00;88.10;;;;;;6193080;23;20063;-87
2021/09/22 18:22:16;;;;;;;11.02;8.45;;;15.90;88.80;;;;;;6195899;23;20012;-87
2021/09/22 18:24:47;;;;;;;12.30;8.85;;;15.90;89.50;;;;;;6169031;23;20008;-88
2021/09/22 18:27:23;;;;;;;9.88;7.95;;;15.80;90.00;;;;;;6169454;23;20039;-87
2021/09/22 18:29:49;;;;;;;11.57;7.95;;;15.80;90.20;;;;;;6194818;23;20008;-89
2021/09/22 18:32:16;;;;;;;12.77;8.05;;;15.70;90.40;;;;;;6171240;23;20016;-88
2021/09/22 18:34:45;;;;;;;8.45;6.57;;;15.60;90.50;;;;;;6197045;23;20010;-87
2021/09/22 18:37:12;;;;;;;8.25;6.47;;;15.60;90.70;;;;;;6170999;23;20011;-87
2021/09/22 18:42:46;;;;;;;9.05;6.93;;;15.50;91.10;;;;;;6159373;23;20360;-88
2021/09/22 18:45:19;;;;;;;9.82;6.93;;;15.50;91.20;;;;;;6169499;23;20016;-88
2021/09/22 18:47:49;;;;;;;7.53;6.38;;;15.40;91.30;;;;;;6163881;23;20014;-88
2021/09/22 18:50:27;;;;;;;9.32;6.90;;;15.30;91.50;;;;;;6167341;23;20016;-87
2021/09/22 18:53:03;;;;;;;8.70;7.25;;;15.30;91.60;;;;;;6144669;23;20039;-88
2021/09/22 18:55:34;;;;;;;;;;;15.20;91.80;;;;;;6220696;23;20011;-88
2021/09/22 18:58:06;;;;;;;9.18;6.65;;;15.20;91.80;;;;;;6143339;23;19911;-88
2021/09/22 19:00:45;;;;;;;8.38;6.78;;;15.20;91.90;;;;;;6193628;23;20004;-87
2021/09/22 19:03:38;;;;;;;9.88;6.90;;;15.10;92.10;;;;;;6216846;23;20019;-87
2021/09/22 19:06:32;;;;;;;10.40;7.65;;;15.00;92.50;;;;;;6170662;23;20035;-87
2021/09/22 19:09:16;;;;;;;;;;;15.00;92.30;;;;;;6191498;23;20424;-89
2021/09/22 19:11:51;;;;;;;12.15;8.10;;;15.00;92.40;;;;;;6186718;23;19908;-88
2021/09/22 19:14:23;;;;;;;10.27;7.10;;;14.90;92.50;;;;;;6162561;23;20027;-89
2021/09/22 19:16:53;;;;;;;12.73;9.27;;;14.80;92.60;;;;;;6161605;23;20015;-88
2021/09/22 19:19:29;;;;;;;13.52;9.82;;;14.80;92.80;;;;;;6164595;23;20008;-88
2021/09/22 19:21:56;;;;;;;11.43;8.23;;;14.80;93.00;;;;;;6162694;23;20016;-89
2021/09/22 19:24:23;;;;;;;10.63;8.13;;;14.80;93.00;;;;;;6161237;23;20008;-88
2021/09/22 19:26:49;;;;;;;13.95;9.20;;;14.70;93.10;;;;;;6160834;23;20012;-88
2021/09/22 19:29:17;;;;;;;12.30;8.40;;;14.70;93.30;;;;;;6160492;23;20015;-88
2021/09/22 19:31:44;;;;;;;15.10;8.82;;;14.70;93.40;;;;;;6185627;23;20019;-88
2021/09/22 19:34:11;;;;;;;13.50;8.75;;;14.60;93.60;;;;;;6211610;23;20348;-88